Terminal Aerodrome Forecast
Issued by NWS Shreveport, LA

Home | Current Version | Previous Version | Text Only | Print | Product List | Glossary On
Versions: 1 2 3 4 5 6 7 8 9 10 11 12 13 14 15 16
000
FTUS44 KSHV 042350
TAFTYR
TAF
KTYR 042350Z 0500/0524 16005KT P6SM FEW060 SCT080 SCT250
     FM051500 16007KT P6SM SCT025 SCT250
     FM051700 15007KT P6SM SCT040 SCT250
     FM052000 15007KT P6SM SCT050 SCT070 SCT250=

USA.gov is the U.S. government's official web portal to all federal, state and local government web resources and services.